createdAt,value
2023-01-07T00:01:31.500Z,3.10
2023-01-07T00:04:03.370Z,3.20
2023-01-07T00:06:35.771Z,3.30
2023-01-07T00:09:08.047Z,3.10
2023-01-07T00:11:40.604Z,2.70
2023-01-07T00:14:13.145Z,2.90
2023-01-07T00:16:43.971Z,2.90
2023-01-07T00:19:16.981Z,3.10
2023-01-07T00:21:47.439Z,3.10
2023-01-07T00:24:18.556Z,3.10
2023-01-07T00:26:49.286Z,3.10
2023-01-07T00:29:21.198Z,3.20
2023-01-07T00:31:51.677Z,3.30
2023-01-07T00:34:23.579Z,3.60
2023-01-07T00:37:15.510Z,3.10
2023-01-07T00:39:45.921Z,2.80
2023-01-07T00:42:33.731Z,3.00
2023-01-07T00:45:04.516Z,2.90
2023-01-07T00:47:35.027Z,3.50
2023-01-07T00:50:06.017Z,3.40
2023-01-07T00:52:36.441Z,3.60
2023-01-07T00:55:11.140Z,3.80
2023-01-07T00:57:41.859Z,4.00
2023-01-07T01:00:15.879Z,3.90
2023-01-07T01:02:47.105Z,4.10
2023-01-07T01:05:17.851Z,4.40
2023-01-07T01:07:49.090Z,3.60
2023-01-07T01:10:21.378Z,3.60
2023-01-07T01:12:51.906Z,3.40
2023-01-07T01:15:22.761Z,4.50
2023-01-07T01:17:54.013Z,3.90
2023-01-07T01:20:24.451Z,3.90
2023-01-07T01:22:54.912Z,4.00
2023-01-07T01:25:25.374Z,3.50
2023-01-07T01:27:55.785Z,3.70
2023-01-07T01:30:27.000Z,4.20
2023-01-07T01:32:57.663Z,4.60
2023-01-07T01:35:28.746Z,3.90
2023-01-07T01:38:00.711Z,4.00
2023-01-07T01:40:33.457Z,4.20
2023-01-07T01:43:03.954Z,3.60
2023-01-07T01:45:34.552Z,3.50
2023-01-07T01:48:09.561Z,3.40
2023-01-07T01:50:44.168Z,3.40
2023-01-07T01:53:21.298Z,3.20
2023-01-07T01:55:56.610Z,2.70
2023-01-07T01:58:33.188Z,3.60
2023-01-07T02:01:04.737Z,2.90
2023-01-07T02:03:38.950Z,2.80
2023-01-07T02:06:13.927Z,3.20
2023-01-07T02:08:44.688Z,3.10
2023-01-07T02:11:30.916Z,3.30
2023-01-07T02:14:22.022Z,3.00
2023-01-07T02:16:59.790Z,3.60
2023-01-07T02:20:07.122Z,3.50
2023-01-07T02:22:59.057Z,3.90
2023-01-07T02:26:02.420Z,3.50
2023-01-07T02:28:52.260Z,3.10
2023-01-07T02:31:43.685Z,4.10
2023-01-07T02:34:20.221Z,5.10
2023-01-07T02:36:56.597Z,5.50
2023-01-07T02:39:41.110Z,6.00
2023-01-07T02:42:20.908Z,5.60
2023-01-07T02:45:00.650Z,4.90
2023-01-07T02:47:36.294Z,7.60
2023-01-07T02:50:07.947Z,6.50
2023-01-07T02:52:38.815Z,4.50
2023-01-07T02:55:16.698Z,3.50
2023-01-07T02:58:19.385Z,3.50
2023-01-07T03:01:18.240Z,4.00
2023-01-07T03:04:05.668Z,3.90
2023-01-07T03:06:54.455Z,4.20
2023-01-07T03:09:34.201Z,4.30
2023-01-07T03:12:11.902Z,4.00
2023-01-07T03:14:49.506Z,3.90
2023-01-07T03:17:26.771Z,3.60
2023-01-07T03:20:00.793Z,3.30
2023-01-07T03:22:35.822Z,3.40
2023-01-07T03:25:10.107Z,3.30
2023-01-07T03:27:42.827Z,3.30
2023-01-07T03:30:18.020Z,3.30
2023-01-07T03:32:53.623Z,3.20
2023-01-07T03:35:26.121Z,3.10
2023-01-07T03:37:58.671Z,3.40
2023-01-07T03:40:29.704Z,3.40
2023-01-07T03:43:01.710Z,3.30
2023-01-07T03:45:32.657Z,3.40
2023-01-07T03:48:03.404Z,3.00
2023-01-07T03:50:38.010Z,3.50
2023-01-07T03:53:09.236Z,3.60
2023-01-07T03:55:40.430Z,3.50
2023-01-07T03:58:10.938Z,3.00
2023-01-07T04:00:41.422Z,3.70
2023-01-07T04:03:15.834Z,3.70
2023-01-07T04:05:49.020Z,4.20
2023-01-07T04:08:21.972Z,4.60
2023-01-07T04:10:52.757Z,4.30
2023-01-07T04:13:23.451Z,4.60
2023-01-07T04:15:54.167Z,4.50
2023-01-07T04:18:24.648Z,4.00
2023-01-07T04:20:55.160Z,5.10
2023-01-07T04:23:25.617Z,5.50
2023-01-07T04:25:56.956Z,4.60
2023-01-07T04:28:28.416Z,5.70
2023-01-07T04:31:01.213Z,5.40
2023-01-07T04:33:32.196Z,5.30
2023-01-07T04:36:02.871Z,5.00
2023-01-07T04:38:34.135Z,5.20
2023-01-07T04:41:04.790Z,5.30
2023-01-07T04:43:36.246Z,5.70
2023-01-07T04:46:09.161Z,5.50
2023-01-07T04:48:39.844Z,5.00
2023-01-07T04:51:10.878Z,5.20
2023-01-07T04:53:41.720Z,5.10
2023-01-07T04:56:12.573Z,4.80
2023-01-07T04:58:43.856Z,5.10
2023-01-07T05:01:14.755Z,5.00
2023-01-07T05:03:46.170Z,13.70
2023-01-07T05:06:17.472Z,8.80
2023-01-07T05:08:48.615Z,6.70
2023-01-07T05:11:21.820Z,5.50
2023-01-07T05:13:54.029Z,4.90
2023-01-07T05:16:26.241Z,4.60
2023-01-07T05:18:57.030Z,4.80
2023-01-07T05:21:27.996Z,4.70
2023-01-07T05:23:58.536Z,4.20
2023-01-07T05:26:29.121Z,4.90
2023-01-07T05:28:59.930Z,4.80
2023-01-07T05:31:31.762Z,4.50
2023-01-07T05:34:02.348Z,4.80
2023-01-07T05:36:32.834Z,5.10
2023-01-07T05:39:03.682Z,5.20
2023-01-07T05:41:34.457Z,4.90
2023-01-07T05:44:06.372Z,5.30
2023-01-07T05:46:36.779Z,5.20
2023-01-07T05:49:07.564Z,5.30
2023-01-07T05:51:38.327Z,5.00
2023-01-07T05:54:08.895Z,5.30
2023-01-07T05:56:39.342Z,5.40
2023-01-07T05:59:09.758Z,5.50
2023-01-07T06:01:40.223Z,5.50
2023-01-07T06:04:10.853Z,5.50
2023-01-07T06:06:41.336Z,5.70
2023-01-07T06:09:13.208Z,6.00
2023-01-07T06:11:43.607Z,5.60
2023-01-07T06:14:14.231Z,5.90
2023-01-07T06:16:44.657Z,6.20
2023-01-07T06:19:15.452Z,6.30
2023-01-07T06:21:45.891Z,7.40
2023-01-07T06:24:16.589Z,7.10
2023-01-07T06:26:47.033Z,8.20
2023-01-07T06:29:17.554Z,7.00
2023-01-07T06:31:47.983Z,6.60
2023-01-07T06:34:18.405Z,6.10
2023-01-07T06:36:48.809Z,6.40
2023-01-07T06:39:19.410Z,6.20
2023-01-07T06:41:49.871Z,6.30
2023-01-07T06:44:20.327Z,6.00
2023-01-07T06:46:50.794Z,6.40
2023-01-07T06:49:21.199Z,6.10
2023-01-07T06:51:51.650Z,5.80
2023-01-07T06:54:22.080Z,5.70
2023-01-07T06:56:52.505Z,7.10
2023-01-07T06:59:22.942Z,5.40
2023-01-07T07:01:53.493Z,5.70
2023-01-07T07:04:24.205Z,6.30
2023-01-07T07:06:54.617Z,5.40
2023-01-07T07:09:25.260Z,5.80
2023-01-07T07:11:55.724Z,5.80
2023-01-07T07:14:26.147Z,5.50
2023-01-07T07:16:56.606Z,5.20
2023-01-07T07:19:27.085Z,5.40
2023-01-07T07:21:57.609Z,5.10
2023-01-07T07:24:28.188Z,5.10
2023-01-07T07:26:59.996Z,6.30
2023-01-07T07:29:30.481Z,5.60
2023-01-07T07:32:00.954Z,5.70
2023-01-07T07:34:31.468Z,5.20
2023-01-07T07:37:01.918Z,5.40
2023-01-07T07:39:32.368Z,6.00
2023-01-07T07:42:05.190Z,5.60
2023-01-07T07:44:35.638Z,6.60
2023-01-07T07:47:06.301Z,5.90
2023-01-07T07:49:36.901Z,6.20
2023-01-07T07:52:07.591Z,5.20
2023-01-07T07:54:38.017Z,5.70
2023-01-07T07:57:08.532Z,6.00
2023-01-07T07:59:39.027Z,5.80
2023-01-07T08:02:13.508Z,5.80
2023-01-07T08:04:44.051Z,6.00
2023-01-07T08:07:14.794Z,6.30
2023-01-07T08:10:03.262Z,5.60
2023-01-07T08:12:33.890Z,5.90
2023-01-07T08:15:04.863Z,5.80
2023-01-07T08:17:36.284Z,6.90
2023-01-07T08:20:08.602Z,7.00
2023-01-07T08:22:39.386Z,7.00
2023-01-07T08:25:11.316Z,7.40
2023-01-07T08:27:41.967Z,6.50
2023-01-07T08:30:14.385Z,6.80
2023-01-07T08:32:45.191Z,7.30
2023-01-07T08:35:16.139Z,6.90
2023-01-07T08:37:46.763Z,5.90
2023-01-07T08:40:17.307Z,5.70
2023-01-07T08:42:47.825Z,6.20
2023-01-07T08:45:18.581Z,7.90
2023-01-07T08:47:50.030Z,6.70
2023-01-07T08:50:21.077Z,6.60
2023-01-07T08:52:51.505Z,6.50
2023-01-07T08:55:22.257Z,8.10
2023-01-07T08:57:53.469Z,6.80
2023-01-07T09:00:24.470Z,6.70
2023-01-07T09:02:55.132Z,6.30
2023-01-07T09:05:25.618Z,7.20
2023-01-07T09:07:57.591Z,6.90
2023-01-07T09:10:28.155Z,7.10
2023-01-07T09:12:58.608Z,6.00
2023-01-07T09:15:29.096Z,5.70
2023-01-07T09:17:59.520Z,6.00
2023-01-07T09:20:30.666Z,6.80
2023-01-07T09:23:01.311Z,6.20
2023-01-07T09:25:31.848Z,7.00
2023-01-07T09:28:02.282Z,7.10
2023-01-07T09:30:32.802Z,6.80
2023-01-07T09:33:03.311Z,7.00
2023-01-07T09:35:33.875Z,7.40
2023-01-07T09:38:04.296Z,7.10
2023-01-07T09:40:39.711Z,7.20
2023-01-07T09:43:17.323Z,6.70
2023-01-07T09:45:51.849Z,8.00
2023-01-07T09:48:28.516Z,6.80
2023-01-07T09:51:03.665Z,7.20
2023-01-07T09:53:37.324Z,7.50
2023-01-07T09:56:13.564Z,7.00
2023-01-07T09:58:48.532Z,7.20
2023-01-07T10:01:31.692Z,6.80
2023-01-07T10:04:16.198Z,5.70
2023-01-07T10:06:53.720Z,6.00
2023-01-07T10:09:34.140Z,6.90
2023-01-07T10:12:12.416Z,6.60
2023-01-07T10:15:16.341Z,6.70
2023-01-07T10:18:02.560Z,6.50
2023-01-07T10:20:38.723Z,6.70
2023-01-07T10:23:14.139Z,6.50
2023-01-07T10:25:48.905Z,7.20
2023-01-07T10:28:22.159Z,6.20
2023-01-07T10:30:53.115Z,6.70
2023-01-07T10:33:28.512Z,5.60
2023-01-07T10:36:09.509Z,6.40
2023-01-07T10:38:44.443Z,7.20
2023-01-07T10:41:22.751Z,6.60
2023-01-07T10:44:12.231Z,6.20
2023-01-07T10:47:00.574Z,6.50
2023-01-07T10:50:00.399Z,6.90
2023-01-07T10:52:43.412Z,7.00
2023-01-07T10:55:30.755Z,7.60
2023-01-07T10:58:01.231Z,8.20
2023-01-07T11:00:32.218Z,7.90
2023-01-07T11:03:02.671Z,7.70
2023-01-07T11:05:39.628Z,8.30
2023-01-07T11:08:17.116Z,7.20
2023-01-07T11:10:49.192Z,7.30
2023-01-07T11:13:26.364Z,7.10
2023-01-07T11:15:59.667Z,7.20
2023-01-07T11:18:35.733Z,13.10
2023-01-07T11:21:07.400Z,8.40
2023-01-07T11:23:39.082Z,8.40
2023-01-07T11:26:17.658Z,7.60
2023-01-07T11:28:54.420Z,8.10
2023-01-07T11:31:43.431Z,7.40
2023-01-07T11:34:24.833Z,7.50
2023-01-07T11:36:55.921Z,8.30
2023-01-07T11:39:28.229Z,5.80
2023-01-07T11:42:01.577Z,6.80
2023-01-07T11:44:32.071Z,6.00
2023-01-07T11:47:03.989Z,5.40
2023-01-07T11:49:41.557Z,4.80
2023-01-07T11:52:20.942Z,6.70
2023-01-07T11:54:54.063Z,6.70
2023-01-07T11:57:27.004Z,6.40
2023-01-07T12:00:16.478Z,6.10
2023-01-07T12:02:59.887Z,5.90
2023-01-07T12:05:31.328Z,5.20
2023-01-07T12:08:02.013Z,5.90
2023-01-07T12:10:35.811Z,5.40
2023-01-07T12:13:18.382Z,5.40
2023-01-07T12:15:53.904Z,5.60
2023-01-07T12:18:49.541Z,4.80
2023-01-07T12:21:35.959Z,6.60
2023-01-07T12:24:46.307Z,6.40
2023-01-07T12:27:31.383Z,4.80
2023-01-07T12:30:20.070Z,5.40
2023-01-07T12:33:02.146Z,5.00
2023-01-07T12:35:36.680Z,4.80
2023-01-07T12:38:13.451Z,5.10
2023-01-07T12:40:48.275Z,5.70
2023-01-07T12:43:24.491Z,4.70
2023-01-07T12:46:00.439Z,5.90
2023-01-07T12:48:37.881Z,5.20
2023-01-07T12:51:15.722Z,5.50
2023-01-07T12:53:50.625Z,6.10
2023-01-07T12:56:25.567Z,6.20
2023-01-07T12:59:00.056Z,5.50
2023-01-07T13:01:35.338Z,6.10
2023-01-07T13:04:15.351Z,5.30
2023-01-07T13:06:52.282Z,5.10
2023-01-07T13:09:31.183Z,5.10
2023-01-07T13:12:40.937Z,4.30
2023-01-07T13:15:20.693Z,5.00
2023-01-07T13:17:54.105Z,4.50
2023-01-07T13:20:43.621Z,4.30
2023-01-07T13:23:21.751Z,4.30
2023-01-07T13:26:06.829Z,5.00
2023-01-07T13:29:11.178Z,5.00
2023-01-07T13:31:54.308Z,5.40
2023-01-07T13:34:37.670Z,5.00
2023-01-07T13:37:23.627Z,4.40
2023-01-07T13:40:09.830Z,4.10
2023-01-07T13:42:50.437Z,4.70
2023-01-07T13:45:24.000Z,5.00
2023-01-07T13:47:58.385Z,5.00
2023-01-07T13:50:35.155Z,5.60
2023-01-07T13:53:07.950Z,5.00
2023-01-07T13:55:42.000Z,4.50
2023-01-07T13:58:45.829Z,4.30
2023-01-07T14:01:18.381Z,4.80
2023-01-07T14:03:50.704Z,4.70
2023-01-07T14:06:48.492Z,4.70
2023-01-07T14:09:26.952Z,4.80
2023-01-07T14:12:32.431Z,4.90
2023-01-07T14:15:28.063Z,4.00
2023-01-07T14:18:30.431Z,4.70
2023-01-07T14:21:11.965Z,4.70
2023-01-07T14:23:52.649Z,4.00
2023-01-07T14:26:32.024Z,4.00
2023-01-07T14:29:24.353Z,6.20
2023-01-07T14:32:24.175Z,5.00
2023-01-07T14:34:59.380Z,4.90
2023-01-07T14:37:35.514Z,4.90
2023-01-07T14:40:43.786Z,4.70
2023-01-07T14:43:50.116Z,4.70
2023-01-07T14:46:47.819Z,4.20
2023-01-07T14:49:53.367Z,4.50
2023-01-07T14:53:08.149Z,4.90
2023-01-07T14:56:01.980Z,6.50
2023-01-07T14:58:41.809Z,6.80
2023-01-07T15:01:34.478Z,6.30
2023-01-07T15:04:33.538Z,6.40
2023-01-07T15:07:05.028Z,6.30
2023-01-07T15:09:58.251Z,5.50
2023-01-07T15:12:51.481Z,6.10
2023-01-07T15:15:45.246Z,5.70
2023-01-07T15:18:16.411Z,7.40
2023-01-07T15:21:02.869Z,6.80
2023-01-07T15:23:40.211Z,7.10
2023-01-07T15:26:18.663Z,7.70
2023-01-07T15:28:56.426Z,7.40
2023-01-07T15:31:36.033Z,7.20
2023-01-07T15:34:12.652Z,6.90
2023-01-07T15:36:46.245Z,7.00
2023-01-07T15:39:28.373Z,7.50
2023-01-07T15:42:00.793Z,6.80
2023-01-07T15:44:41.025Z,7.20
2023-01-07T15:47:36.332Z,8.90
2023-01-07T15:50:29.051Z,8.20
2023-01-07T15:53:01.226Z,15.20
2023-01-07T15:58:06.869Z,8.40
2023-01-07T16:00:38.053Z,8.00
2023-01-07T16:03:08.933Z,8.20
2023-01-07T16:05:41.247Z,7.60
2023-01-07T16:08:19.431Z,7.90
2023-01-07T16:11:02.846Z,9.20
2023-01-07T16:13:36.626Z,9.00
2023-01-07T16:16:16.457Z,9.40
2023-01-07T16:18:56.770Z,9.70
2023-01-07T16:21:31.424Z,9.80
2023-01-07T16:24:01.995Z,10.10
2023-01-07T16:26:40.192Z,10.20
2023-01-07T16:29:16.103Z,12.10
2023-01-07T16:31:47.199Z,10.90
2023-01-07T16:34:50.298Z,10.10
2023-01-07T16:37:21.077Z,12.30
2023-01-07T16:39:52.947Z,12.00
2023-01-07T16:42:25.231Z,10.70
2023-01-07T16:45:13.259Z,11.70
2023-01-07T16:47:43.806Z,12.20
2023-01-07T16:50:38.323Z,10.70
2023-01-07T16:53:29.928Z,10.30
2023-01-07T16:56:19.291Z,10.90
2023-01-07T16:58:55.551Z,10.90
2023-01-07T17:01:33.557Z,11.50
2023-01-07T17:04:09.659Z,12.10
2023-01-07T17:06:43.537Z,12.70
2023-01-07T17:09:23.343Z,13.40
2023-01-07T17:11:55.321Z,12.90
2023-01-07T17:14:47.047Z,13.70
2023-01-07T17:17:30.256Z,13.30
2023-01-07T17:20:22.317Z,13.20
2023-01-07T17:22:53.052Z,12.90
2023-01-07T17:25:29.214Z,14.30
2023-01-07T17:28:07.727Z,12.40
2023-01-07T17:33:08.237Z,13.50
2023-01-07T17:35:46.743Z,14.90
2023-01-07T17:40:48.065Z,15.10
2023-01-07T17:43:37.588Z,13.70
2023-01-07T17:46:11.845Z,14.30
2023-01-07T17:48:42.398Z,13.90
2023-01-07T17:51:14.094Z,14.00
2023-01-07T17:53:48.060Z,16.70
2023-01-07T17:56:19.358Z,16.80
2023-01-07T17:58:50.054Z,17.00
2023-01-07T18:01:23.783Z,17.70
2023-01-07T18:03:55.551Z,17.30
2023-01-07T18:06:27.706Z,18.70
2023-01-07T18:11:47.359Z,17.20
2023-01-07T18:14:18.427Z,17.20
2023-01-07T18:16:49.118Z,17.30
2023-01-07T18:19:20.284Z,17.50
2023-01-07T18:21:50.818Z,18.70
2023-01-07T18:24:22.807Z,16.90
2023-01-07T18:26:55.144Z,16.90
2023-01-07T18:29:26.946Z,15.70
2023-01-07T18:31:57.534Z,15.60
2023-01-07T18:34:29.312Z,15.10
2023-01-07T18:37:00.131Z,15.30
2023-01-07T18:39:30.779Z,17.40
2023-01-07T18:42:01.255Z,17.70
2023-01-07T18:44:31.760Z,16.50
2023-01-07T18:47:02.291Z,16.90
2023-01-07T18:49:32.773Z,17.60
2023-01-07T18:52:03.263Z,17.40
2023-01-07T18:54:33.755Z,18.80
2023-01-07T18:57:04.780Z,17.40
2023-01-07T18:59:35.515Z,18.70
2023-01-07T19:02:08.954Z,18.60
2023-01-07T19:04:41.594Z,18.50
2023-01-07T19:07:12.527Z,19.80
2023-01-07T19:09:43.038Z,19.30
2023-01-07T19:12:14.320Z,19.30
2023-01-07T19:14:44.811Z,16.10
2023-01-07T19:17:15.364Z,15.90
2023-01-07T19:19:48.581Z,15.20
2023-01-07T19:22:20.234Z,15.40
2023-01-07T19:24:51.038Z,17.30
2023-01-07T19:27:21.510Z,17.50
2023-01-07T19:29:51.971Z,17.70
2023-01-07T19:32:22.713Z,17.70
2023-01-07T19:34:53.500Z,16.00
2023-01-07T19:37:24.146Z,17.40
2023-01-07T19:39:54.745Z,17.10
2023-01-07T19:42:25.236Z,16.90
2023-01-07T19:44:55.676Z,17.90
2023-01-07T19:47:26.434Z,18.30
2023-01-07T19:49:56.903Z,17.50
2023-01-07T19:52:27.438Z,18.60
2023-01-07T19:54:57.891Z,19.90
2023-01-07T19:57:29.084Z,18.10
2023-01-07T19:59:59.864Z,15.70
2023-01-07T20:02:30.526Z,14.90
2023-01-07T20:05:01.212Z,14.50
2023-01-07T20:07:34.138Z,14.50
2023-01-07T20:10:05.205Z,15.70
2023-01-07T20:12:35.661Z,15.90
2023-01-07T20:15:07.326Z,16.50
2023-01-07T20:17:37.767Z,14.70
2023-01-07T20:20:09.987Z,15.90
2023-01-07T20:25:12.172Z,16.20
2023-01-07T20:30:14.424Z,15.30
2023-01-07T20:32:44.901Z,17.20
2023-01-07T20:35:15.510Z,17.90
2023-01-07T20:37:46.005Z,19.80
2023-01-07T20:40:17.016Z,18.90
2023-01-07T20:42:47.526Z,19.60
2023-01-07T20:45:18.256Z,17.70
2023-01-07T20:47:48.671Z,16.00
2023-01-07T20:50:19.344Z,16.20
2023-01-07T20:52:49.849Z,16.00
2023-01-07T20:55:20.656Z,17.10
2023-01-07T20:57:51.131Z,15.80
2023-01-07T21:00:21.811Z,17.00
2023-01-07T21:02:52.661Z,17.80
2023-01-07T21:05:24.519Z,19.00
2023-01-07T21:07:55.617Z,19.20
2023-01-07T21:10:26.059Z,19.10
2023-01-07T21:12:56.580Z,18.70
2023-01-07T21:15:26.991Z,18.50
2023-01-07T21:17:57.599Z,18.10
2023-01-07T21:20:28.011Z,16.20
2023-01-07T21:22:58.752Z,17.30
2023-01-07T21:25:29.224Z,18.00
2023-01-07T21:28:00.341Z,17.50
2023-01-07T21:30:30.983Z,18.90
2023-01-07T21:33:01.806Z,23.00
2023-01-07T21:35:32.251Z,16.80
2023-01-07T21:38:02.683Z,16.70
2023-01-07T21:40:33.105Z,17.10
2023-01-07T21:43:03.563Z,18.00
2023-01-07T21:45:34.275Z,21.20
2023-01-07T21:48:05.204Z,18.90
2023-01-07T21:50:35.760Z,18.90
2023-01-07T21:53:06.213Z,18.20
2023-01-07T21:55:40.592Z,20.10
2023-01-07T21:58:11.113Z,18.00
2023-01-07T22:00:41.666Z,19.00
2023-01-07T22:03:12.425Z,19.50
2023-01-07T22:05:42.847Z,20.70
2023-01-07T22:08:13.406Z,17.80
2023-01-07T22:10:50.115Z,16.20
2023-01-07T22:13:20.920Z,17.70
2023-01-07T22:15:51.340Z,15.80
2023-01-07T22:18:21.891Z,15.80
2023-01-07T22:20:56.674Z,16.50
2023-01-07T22:23:27.123Z,17.80
2023-01-07T22:26:02.475Z,16.30
2023-01-07T22:28:35.143Z,17.40
2023-01-07T22:31:11.677Z,17.60
2023-01-07T22:33:42.212Z,18.90
2023-01-07T22:36:15.794Z,17.10
2023-01-07T22:38:46.730Z,19.00
2023-01-07T22:41:17.263Z,18.80
2023-01-07T22:43:47.752Z,19.80
2023-01-07T22:46:22.482Z,19.40
2023-01-07T22:48:53.917Z,21.10
2023-01-07T22:51:28.157Z,21.00
2023-01-07T22:54:00.424Z,20.30
2023-01-07T22:56:31.532Z,18.50
2023-01-07T22:59:01.934Z,19.90
2023-01-07T23:01:32.618Z,19.50
2023-01-07T23:04:03.163Z,21.90
2023-01-07T23:06:34.153Z,23.20
2023-01-07T23:09:04.672Z,20.80
2023-01-07T23:11:51.023Z,19.20
2023-01-07T23:14:23.831Z,18.60
2023-01-07T23:16:54.886Z,17.30
2023-01-07T23:19:25.383Z,18.60
2023-01-07T23:21:56.872Z,18.70
2023-01-07T23:24:27.507Z,17.90
2023-01-07T23:26:58.247Z,17.10
2023-01-07T23:29:29.139Z,17.60
2023-01-07T23:31:59.607Z,17.10
2023-01-07T23:34:30.069Z,18.10
2023-01-07T23:37:00.625Z,17.50
2023-01-07T23:39:31.552Z,16.50
2023-01-07T23:42:02.634Z,17.40
2023-01-07T23:44:33.131Z,16.20
2023-01-07T23:47:03.597Z,15.20
2023-01-07T23:49:34.095Z,15.60
2023-01-07T23:52:04.944Z,16.00
2023-01-07T23:54:35.357Z,15.70
2023-01-07T23:57:05.789Z,16.50
2023-01-07T23:59:36.643Z,16.10
